sensor_id;sensor_type;location;lat;lon;timestamp;pressure;altitude;pressure_sealevel;temperature;humidity
73594;BME280;64760;53.404;23.498;2023-05-24T00:00:26;99457.47;;;15.43;62.32
73594;BME280;64760;53.404;23.498;2023-05-24T00:03:13;99450.69;;;15.40;62.44
73594;BME280;64760;53.404;23.498;2023-05-24T00:05:42;99456.06;;;15.40;62.03
73594;BME280;64760;53.404;23.498;2023-05-24T00:08:11;99448.41;;;15.37;62.18
73594;BME280;64760;53.404;23.498;2023-05-24T00:10:38;99453.47;;;15.34;62.81
73594;BME280;64760;53.404;23.498;2023-05-24T00:13:04;99447.72;;;15.30;62.40
73594;BME280;64760;53.404;23.498;2023-05-24T00:15:31;99443.28;;;15.24;62.84
73594;BME280;64760;53.404;23.498;2023-05-24T00:17:58;99454.50;;;15.21;63.39
73594;BME280;64760;53.404;23.498;2023-05-24T00:20:24;99444.19;;;15.18;63.32
73594;BME280;64760;53.404;23.498;2023-05-24T00:22:50;99444.44;;;15.17;63.41
73594;BME280;64760;53.404;23.498;2023-05-24T00:25:17;99444.66;;;15.15;63.89
73594;BME280;64760;53.404;23.498;2023-05-24T00:27:43;99440.31;;;15.14;63.46
73594;BME280;64760;53.404;23.498;2023-05-24T00:30:11;99445.13;;;15.12;64.06
73594;BME280;64760;53.404;23.498;2023-05-24T00:32:37;99439.13;;;15.10;64.04
73594;BME280;64760;53.404;23.498;2023-05-24T00:35:04;99441.47;;;15.07;64.53
73594;BME280;64760;53.404;23.498;2023-05-24T00:37:31;99442.78;;;15.04;64.69
73594;BME280;64760;53.404;23.498;2023-05-24T00:39:57;99436.53;;;15.03;64.73
73594;BME280;64760;53.404;23.498;2023-05-24T00:42:24;99443.22;;;15.01;64.64
73594;BME280;64760;53.404;23.498;2023-05-24T00:44:50;99444.88;;;15.02;64.42
73594;BME280;64760;53.404;23.498;2023-05-24T00:47:17;99447.00;;;15.00;65.06
73594;BME280;64760;53.404;23.498;2023-05-24T00:49:45;99445.34;;;14.99;64.84
73594;BME280;64760;53.404;23.498;2023-05-24T00:52:12;99447.00;;;15.00;64.87
73594;BME280;64760;53.404;23.498;2023-05-24T00:54:38;99445.81;;;14.96;64.59
73594;BME280;64760;53.404;23.498;2023-05-24T00:57:05;99446.25;;;14.93;64.96
73594;BME280;64760;53.404;23.498;2023-05-24T00:59:34;99446.38;;;14.86;65.32
73594;BME280;64760;53.404;23.498;2023-05-24T01:02:06;99444.81;;;14.79;66.07
73594;BME280;64760;53.404;23.498;2023-05-24T01:04:34;99445.16;;;14.71;66.47
73594;BME280;64760;53.404;23.498;2023-05-24T01:07:34;99447.50;;;14.67;66.32
73594;BME280;64760;53.404;23.498;2023-05-24T01:10:32;99448.78;;;14.65;66.63
73594;BME280;64760;53.404;23.498;2023-05-24T01:13:07;99446.53;;;14.62;67.31
73594;BME280;64760;53.404;23.498;2023-05-24T01:15:41;99442.06;;;14.55;67.29
73594;BME280;64760;53.404;23.498;2023-05-24T01:18:16;99439.22;;;14.50;67.27
73594;BME280;64760;53.404;23.498;2023-05-24T01:20:51;99435.34;;;14.46;67.48
73594;BME280;64760;53.404;23.498;2023-05-24T01:23:32;99434.97;;;14.43;67.25
73594;BME280;64760;53.404;23.498;2023-05-24T01:26:29;99440.56;;;14.41;67.47
73594;BME280;64760;53.404;23.498;2023-05-24T01:28:58;99445.03;;;14.36;67.92
73594;BME280;64760;53.404;23.498;2023-05-24T01:31:25;99439.38;;;14.37;68.23
73594;BME280;64760;53.404;23.498;2023-05-24T01:33:52;99440.00;;;14.39;67.92
73594;BME280;64760;53.404;23.498;2023-05-24T01:36:19;99442.53;;;14.34;68.06
73594;BME280;64760;53.404;23.498;2023-05-24T01:38:47;99441.94;;;14.32;68.12
73594;BME280;64760;53.404;23.498;2023-05-24T01:47:00;99449.91;;;14.09;68.98
73594;BME280;64760;53.404;23.498;2023-05-24T01:49:32;99444.94;;;14.06;69.64
73594;BME280;64760;53.404;23.498;2023-05-24T01:52:02;99437.69;;;14.06;69.42
73594;BME280;64760;53.404;23.498;2023-05-24T01:54:40;99441.44;;;14.05;68.88
73594;BME280;64760;53.404;23.498;2023-05-24T01:57:09;99442.88;;;14.08;68.76
73594;BME280;64760;53.404;23.498;2023-05-24T01:59:39;99452.66;;;14.02;68.76
73594;BME280;64760;53.404;23.498;2023-05-24T02:02:07;99452.38;;;13.92;69.18
73594;BME280;64760;53.404;23.498;2023-05-24T02:04:33;99452.91;;;13.83;70.40
73594;BME280;64760;53.404;23.498;2023-05-24T02:07:00;99470.03;;;13.70;71.60
73594;BME280;64760;53.404;23.498;2023-05-24T02:09:26;99458.28;;;13.64;72.24
73594;BME280;64760;53.404;23.498;2023-05-24T02:11:53;99456.00;;;13.61;72.26
73594;BME280;64760;53.404;23.498;2023-05-24T02:14:19;99457.97;;;13.54;72.40
73594;BME280;64760;53.404;23.498;2023-05-24T02:16:46;99466.78;;;13.43;73.32
73594;BME280;64760;53.404;23.498;2023-05-24T02:19:12;99461.28;;;13.32;73.83
73594;BME280;64760;53.404;23.498;2023-05-24T02:21:40;99466.84;;;13.37;75.47
73594;BME280;64760;53.404;23.498;2023-05-24T02:24:06;99467.94;;;13.29;74.88
73594;BME280;64760;53.404;23.498;2023-05-24T02:26:37;99468.88;;;13.16;75.65
73594;BME280;64760;53.404;23.498;2023-05-24T02:29:03;99467.66;;;13.06;75.86
73594;BME280;64760;53.404;23.498;2023-05-24T02:31:30;99469.00;;;12.97;77.06
73594;BME280;64760;53.404;23.498;2023-05-24T02:33:57;99467.16;;;12.91;78.00
73594;BME280;64760;53.404;23.498;2023-05-24T02:36:24;99465.97;;;12.87;78.57
73594;BME280;64760;53.404;23.498;2023-05-24T02:38:50;99471.34;;;12.87;78.49
73594;BME280;64760;53.404;23.498;2023-05-24T02:41:17;99474.84;;;12.94;77.77
73594;BME280;64760;53.404;23.498;2023-05-24T02:43:44;99471.63;;;13.03;77.28
73594;BME280;64760;53.404;23.498;2023-05-24T02:50:08;99469.53;;;13.37;75.44
73594;BME280;64760;53.404;23.498;2023-05-24T02:52:35;99468.25;;;13.64;73.34
73594;BME280;64760;53.404;23.498;2023-05-24T02:55:02;99468.94;;;13.96;71.69
73594;BME280;64760;53.404;23.498;2023-05-24T02:57:30;99469.78;;;14.26;69.44
73594;BME280;64760;53.404;23.498;2023-05-24T02:59:59;99473.22;;;14.51;67.73
73594;BME280;64760;53.404;23.498;2023-05-24T03:02:27;99468.13;;;14.73;66.74
73594;BME280;64760;53.404;23.498;2023-05-24T03:04:54;99466.56;;;14.95;65.57
73594;BME280;64760;53.404;23.498;2023-05-24T03:07:20;99472.47;;;15.16;64.11
73594;BME280;64760;53.404;23.498;2023-05-24T03:09:46;99467.22;;;15.32;63.11
73594;BME280;64760;53.404;23.498;2023-05-24T03:12:14;99472.72;;;15.49;62.76
73594;BME280;64760;53.404;23.498;2023-05-24T03:14:40;99476.41;;;15.66;61.80
73594;BME280;64760;53.404;23.498;2023-05-24T03:17:06;99478.88;;;15.68;61.82
73594;BME280;64760;53.404;23.498;2023-05-24T03:19:33;99478.28;;;15.66;62.28
73594;BME280;64760;53.404;23.498;2023-05-24T03:22:00;99475.47;;;15.61;62.53
73594;BME280;64760;53.404;23.498;2023-05-24T03:24:27;99481.59;;;15.56;63.01
73594;BME280;64760;53.404;23.498;2023-05-24T03:26:53;99478.28;;;15.54;62.94
73594;BME280;64760;53.404;23.498;2023-05-24T03:29:19;99479.34;;;15.53;63.16
73594;BME280;64760;53.404;23.498;2023-05-24T03:31:47;99476.63;;;15.53;63.45
73594;BME280;64760;53.404;23.498;2023-05-24T03:34:13;99475.94;;;15.58;63.55
73594;BME280;64760;53.404;23.498;2023-05-24T03:36:40;99482.66;;;15.67;62.93
73594;BME280;64760;53.404;23.498;2023-05-24T03:39:08;99485.22;;;15.73;62.86
73594;BME280;64760;53.404;23.498;2023-05-24T03:41:49;99489.44;;;15.81;63.07
73594;BME280;64760;53.404;23.498;2023-05-24T03:44:15;99484.50;;;15.89;62.00
73594;BME280;64760;53.404;23.498;2023-05-24T03:46:42;99486.84;;;15.97;62.31
73594;BME280;64760;53.404;23.498;2023-05-24T03:49:08;99484.59;;;16.06;61.89
73594;BME280;64760;53.404;23.498;2023-05-24T03:51:37;99485.88;;;16.15;61.33
73594;BME280;64760;53.404;23.498;2023-05-24T03:54:03;99482.31;;;16.26;61.58
73594;BME280;64760;53.404;23.498;2023-05-24T03:56:30;99481.47;;;16.37;61.02
73594;BME280;64760;53.404;23.498;2023-05-24T03:58:56;99482.84;;;16.52;59.88
73594;BME280;64760;53.404;23.498;2023-05-24T04:01:26;99483.47;;;16.70;59.68
73594;BME280;64760;53.404;23.498;2023-05-24T04:03:53;99486.25;;;16.87;58.61
73594;BME280;64760;53.404;23.498;2023-05-24T04:06:21;99493.31;;;17.05;58.50
73594;BME280;64760;53.404;23.498;2023-05-24T04:08:54;99493.31;;;17.21;57.84
73594;BME280;64760;53.404;23.498;2023-05-24T04:11:22;99483.81;;;17.35;57.12
73594;BME280;64760;53.404;23.498;2023-05-24T04:13:49;99482.16;;;17.51;56.43
73594;BME280;64760;53.404;23.498;2023-05-24T04:16:16;99484.56;;;17.64;56.35
73594;BME280;64760;53.404;23.498;2023-05-24T04:18:42;99481.75;;;17.76;55.48
73594;BME280;64760;53.404;23.498;2023-05-24T04:21:10;99491.69;;;17.87;55.62
73594;BME280;64760;53.404;23.498;2023-05-24T04:23:37;99484.75;;;17.96;55.53
73594;BME280;64760;53.404;23.498;2023-05-24T04:26:04;99491.13;;;18.07;55.40
73594;BME280;64760;53.404;23.498;2023-05-24T04:28:32;99485.53;;;18.13;54.86
73594;BME280;64760;53.404;23.498;2023-05-24T04:30:59;99497.81;;;18.21;54.51
73594;BME280;64760;53.404;23.498;2023-05-24T04:33:25;99498.06;;;18.19;54.03
73594;BME280;64760;53.404;23.498;2023-05-24T04:35:52;99508.47;;;18.27;54.14
73594;BME280;64760;53.404;23.498;2023-05-24T04:38:19;99506.97;;;18.37;54.37
73594;BME280;64760;53.404;23.498;2023-05-24T04:40:45;99501.41;;;18.48;54.87
73594;BME280;64760;53.404;23.498;2023-05-24T04:43:12;99508.06;;;18.57;54.66
73594;BME280;64760;53.404;23.498;2023-05-24T04:45:39;99506.75;;;18.60;54.80
73594;BME280;64760;53.404;23.498;2023-05-24T04:48:06;99512.91;;;18.77;53.34
73594;BME280;64760;53.404;23.498;2023-05-24T04:50:33;99516.44;;;18.77;53.88
73594;BME280;64760;53.404;23.498;2023-05-24T04:53:00;99512.91;;;18.77;53.33
73594;BME280;64760;53.404;23.498;2023-05-24T04:55:27;99521.38;;;18.81;52.92
73594;BME280;64760;53.404;23.498;2023-05-24T04:57:53;99519.22;;;18.83;52.73
73594;BME280;64760;53.404;23.498;2023-05-24T05:00:20;99523.88;;;18.87;52.54
73594;BME280;64760;53.404;23.498;2023-05-24T05:02:46;99521.72;;;18.89;53.07
73594;BME280;64760;53.404;23.498;2023-05-24T05:05:13;99522.28;;;18.91;52.92
73594;BME280;64760;53.404;23.498;2023-05-24T05:07:39;99524.25;;;18.96;53.28
73594;BME280;64760;53.404;23.498;2023-05-24T05:10:06;99524.00;;;18.97;53.12
73594;BME280;64760;53.404;23.498;2023-05-24T05:12:33;99527.25;;;18.99;53.13
73594;BME280;64760;53.404;23.498;2023-05-24T05:14:59;99530.50;;;18.96;52.31
73594;BME280;64760;53.404;23.498;2023-05-24T05:17:26;99529.94;;;18.94;51.75
73594;BME280;64760;53.404;23.498;2023-05-24T05:19:52;99531.56;;;18.95;51.11
73594;BME280;64760;53.404;23.498;2023-05-24T05:22:18;99534.78;;;18.92;51.58
73594;BME280;64760;53.404;23.498;2023-05-24T05:24:45;99537.50;;;18.92;51.50
73594;BME280;64760;53.404;23.498;2023-05-24T05:27:11;99540.81;;;18.94;51.28
73594;BME280;64760;53.404;23.498;2023-05-24T05:29:38;99535.09;;;18.96;51.56
73594;BME280;64760;53.404;23.498;2023-05-24T05:32:04;99549.56;;;19.01;51.30
73594;BME280;64760;53.404;23.498;2023-05-24T05:38:16;99547.16;;;19.05;52.91
73594;BME280;64760;53.404;23.498;2023-05-24T05:41:00;99551.47;;;19.01;53.58
73594;BME280;64760;53.404;23.498;2023-05-24T05:43:27;99548.50;;;19.02;53.39
73594;BME280;64760;53.404;23.498;2023-05-24T05:45:54;99563.16;;;19.01;53.95
73594;BME280;64760;53.404;23.498;2023-05-24T05:48:21;99557.97;;;19.00;53.96
73594;BME280;64760;53.404;23.498;2023-05-24T05:50:48;99563.69;;;18.98;54.65
73594;BME280;64760;53.404;23.498;2023-05-24T05:53:15;99567.47;;;18.97;54.48
73594;BME280;64760;53.404;23.498;2023-05-24T05:55:41;99570.69;;;18.94;55.29
73594;BME280;64760;53.404;23.498;2023-05-24T05:58:08;99566.09;;;18.95;54.55
73594;BME280;64760;53.404;23.498;2023-05-24T06:00:34;99575.91;;;19.01;54.13
73594;BME280;64760;53.404;23.498;2023-05-24T06:03:01;99577.09;;;19.10;54.20
73594;BME280;64760;53.404;23.498;2023-05-24T06:05:27;99576.44;;;19.24;53.45
73594;BME280;64760;53.404;23.498;2023-05-24T06:07:53;99580.63;;;19.37;51.99
73594;BME280;64760;53.404;23.498;2023-05-24T06:10:20;99579.47;;;19.55;51.63
73594;BME280;64760;53.404;23.498;2023-05-24T06:12:46;99581.50;;;19.69;49.48
73594;BME280;64760;53.404;23.498;2023-05-24T06:15:13;99587.06;;;19.85;48.17
73594;BME280;64760;53.404;23.498;2023-05-24T06:17:39;99577.97;;;20.06;47.93
73594;BME280;64760;53.404;23.498;2023-05-24T06:20:08;99576.41;;;20.20;48.15
73594;BME280;64760;53.404;23.498;2023-05-24T06:22:37;99578.44;;;20.35;47.41
73594;BME280;64760;53.404;23.498;2023-05-24T06:25:05;99580.94;;;20.46;47.23
73594;BME280;64760;53.404;23.498;2023-05-24T06:27:31;99581.28;;;20.60;46.80
73594;BME280;64760;53.404;23.498;2023-05-24T06:29:57;99584.63;;;20.72;46.60
73594;BME280;64760;53.404;23.498;2023-05-24T06:32:24;99592.31;;;20.85;46.24
73594;BME280;64760;53.404;23.498;2023-05-24T06:34:51;99586.34;;;20.98;45.95
73594;BME280;64760;53.404;23.498;2023-05-24T06:37:17;99586.38;;;21.08;45.75
73594;BME280;64760;53.404;23.498;2023-05-24T06:39:43;99589.97;;;21.19;45.23
73594;BME280;64760;53.404;23.498;2023-05-24T06:42:10;99590.00;;;21.29;44.61
73594;BME280;64760;53.404;23.498;2023-05-24T06:44:36;99582.38;;;21.41;44.20
73594;BME280;64760;53.404;23.498;2023-05-24T06:47:03;99593.84;;;21.53;44.79
73594;BME280;64760;53.404;23.498;2023-05-24T06:49:30;99593.84;;;21.64;44.13
73594;BME280;64760;53.404;23.498;2023-05-24T06:51:57;99585.94;;;21.72;44.56
73594;BME280;64760;53.404;23.498;2023-05-24T06:54:23;99593.28;;;21.82;44.15
73594;BME280;64760;53.404;23.498;2023-05-24T06:56:51;99591.97;;;21.89;43.24
73594;BME280;64760;53.404;23.498;2023-05-24T06:59:17;99591.69;;;22.06;43.68
73594;BME280;64760;53.404;23.498;2023-05-24T07:01:43;99602.34;;;22.08;43.53
73594;BME280;64760;53.404;23.498;2023-05-24T07:04:10;99600.13;;;22.15;43.10
73594;BME280;64760;53.404;23.498;2023-05-24T07:06:36;99597.94;;;22.27;43.35
73594;BME280;64760;53.404;23.498;2023-05-24T07:09:03;99607.22;;;22.31;42.57
73594;BME280;64760;53.404;23.498;2023-05-24T07:11:30;99600.34;;;22.38;42.19
73594;BME280;64760;53.404;23.498;2023-05-24T07:13:56;99610.47;;;22.43;42.24
73594;BME280;64760;53.404;23.498;2023-05-24T07:16:23;99608.50;;;22.59;42.10
73594;BME280;64760;53.404;23.498;2023-05-24T07:18:50;99608.75;;;22.67;41.38
73594;BME280;64760;53.404;23.498;2023-05-24T07:21:17;99601.91;;;22.75;40.17
73594;BME280;64760;53.404;23.498;2023-05-24T07:23:43;99605.72;;;22.84;41.83
73594;BME280;64760;53.404;23.498;2023-05-24T07:26:09;99614.69;;;22.94;40.41
73594;BME280;64760;53.404;23.498;2023-05-24T07:28:36;99612.19;;;23.03;39.73
73594;BME280;64760;53.404;23.498;2023-05-24T07:31:04;99610.25;;;23.09;39.85
73594;BME280;64760;53.404;23.498;2023-05-24T07:33:30;99619.19;;;23.24;40.32
73594;BME280;64760;53.404;23.498;2023-05-24T07:35:57;99605.72;;;23.33;39.75
73594;BME280;64760;53.404;23.498;2023-05-24T07:38:23;99617.69;;;23.42;39.12
73594;BME280;64760;53.404;23.498;2023-05-24T07:40:50;99609.16;;;23.54;38.28
73594;BME280;64760;53.404;23.498;2023-05-24T07:43:17;99613.28;;;23.56;37.63
73594;BME280;64760;53.404;23.498;2023-05-24T07:45:45;99613.53;;;23.60;37.55
73594;BME280;64760;53.404;23.498;2023-05-24T07:48:11;99610.47;;;23.61;37.23
73594;BME280;64760;53.404;23.498;2023-05-24T07:50:37;99616.16;;;23.70;38.55
73594;BME280;64760;53.404;23.498;2023-05-24T07:53:04;99617.19;;;23.79;36.49
73594;BME280;64760;53.404;23.498;2023-05-24T07:55:31;99619.56;;;23.91;35.92
73594;BME280;64760;53.404;23.498;2023-05-24T07:57:58;99624.38;;;24.04;35.85
73594;BME280;64760;53.404;23.498;2023-05-24T08:00:25;99625.97;;;24.10;35.20
73594;BME280;64760;53.404;23.498;2023-05-24T08:02:57;99619.38;;;24.11;36.52
73594;BME280;64760;53.404;23.498;2023-05-24T08:05:23;99634.25;;;24.33;35.96
73594;BME280;64760;53.404;23.498;2023-05-24T08:07:57;99626.00;;;24.39;33.32
73594;BME280;64760;53.404;23.498;2023-05-24T08:10:26;99631.25;;;24.35;33.46
73594;BME280;64760;53.404;23.498;2023-05-24T08:13:13;99617.22;;;24.37;32.87
73594;BME280;64760;53.404;23.498;2023-05-24T08:15:49;99626.59;;;24.36;31.92
73594;BME280;64760;53.404;23.498;2023-05-24T08:18:15;99621.34;;;24.39;32.24
73594;BME280;64760;53.404;23.498;2023-05-24T08:20:42;99623.69;;;24.51;32.48
73594;BME280;64760;53.404;23.498;2023-05-24T08:23:08;99623.13;;;24.49;31.92
73594;BME280;64760;53.404;23.498;2023-05-24T08:25:35;99627.13;;;24.61;32.19
73594;BME280;64760;53.404;23.498;2023-05-24T08:28:01;99631.13;;;24.69;32.59
73594;BME280;64760;53.404;23.498;2023-05-24T08:30:27;99631.97;;;24.69;31.97
73594;BME280;64760;53.404;23.498;2023-05-24T08:32:54;99633.59;;;24.70;32.12
73594;BME280;64760;53.404;23.498;2023-05-24T08:35:20;99639.72;;;24.62;31.80
73594;BME280;64760;53.404;23.498;2023-05-24T08:37:46;99636.56;;;24.74;31.55
73594;BME280;64760;53.404;23.498;2023-05-24T08:40:14;99632.97;;;24.78;33.18
73594;BME280;64760;53.404;23.498;2023-05-24T08:42:41;99628.97;;;24.95;32.65
73594;BME280;64760;53.404;23.498;2023-05-24T08:45:11;99634.25;;;25.10;31.94
73594;BME280;64760;53.404;23.498;2023-05-24T08:47:39;99632.47;;;25.19;31.81
73594;BME280;64760;53.404;23.498;2023-05-24T08:50:07;99628.03;;;25.23;32.46
73594;BME280;64760;53.404;23.498;2023-05-24T08:52:34;99627.00;;;25.19;32.31
73594;BME280;64760;53.404;23.498;2023-05-24T09:01:31;99623.81;;;25.49;31.99
73594;BME280;64760;53.404;23.498;2023-05-24T09:04:00;99622.78;;;25.45;30.90
73594;BME280;64760;53.404;23.498;2023-05-24T09:06:29;99629.28;;;25.49;30.31
73594;BME280;64760;53.404;23.498;2023-05-24T09:09:03;99634.34;;;25.42;30.58
73594;BME280;64760;53.404;23.498;2023-05-24T09:11:30;99638.19;;;25.41;29.46
73594;BME280;64760;53.404;23.498;2023-05-24T09:13:59;99632.56;;;25.51;29.62
73594;BME280;64760;53.404;23.498;2023-05-24T09:16:26;99632.66;;;25.65;29.81
73594;BME280;64760;53.404;23.498;2023-05-24T09:18:53;99624.34;;;25.70;30.23
73594;BME280;64760;53.404;23.498;2023-05-24T09:21:19;99637.34;;;25.64;29.71
73594;BME280;64760;53.404;23.498;2023-05-24T09:23:46;99633.66;;;25.55;29.71
73594;BME280;64760;53.404;23.498;2023-05-24T09:26:12;99635.72;;;25.63;29.25
73594;BME280;64760;53.404;23.498;2023-05-24T09:28:38;99640.25;;;25.54;30.47
73594;BME280;64760;53.404;23.498;2023-05-24T09:31:06;99639.25;;;25.64;32.34
73594;BME280;64760;53.404;23.498;2023-05-24T09:33:34;99646.41;;;25.84;29.29
73594;BME280;64760;53.404;23.498;2023-05-24T09:36:02;99646.00;;;25.90;27.89
73594;BME280;64760;53.404;23.498;2023-05-24T09:38:29;99649.91;;;26.03;27.19
73594;BME280;64760;53.404;23.498;2023-05-24T09:43:31;99648.50;;;26.38;29.58
73594;BME280;64760;53.404;23.498;2023-05-24T09:46:02;99643.97;;;26.47;29.12
73594;BME280;64760;53.404;23.498;2023-05-24T09:48:29;99653.03;;;26.61;29.60
73594;BME280;64760;53.404;23.498;2023-05-24T09:51:04;99651.50;;;26.69;29.09
73594;BME280;64760;53.404;23.498;2023-05-24T09:53:32;99657.53;;;26.71;29.70
73594;BME280;64760;53.404;23.498;2023-05-24T09:56:05;99655.78;;;26.75;29.30
73594;BME280;64760;53.404;23.498;2023-05-24T09:58:35;99656.38;;;26.72;29.32
73594;BME280;64760;53.404;23.498;2023-05-24T10:01:05;99654.56;;;26.81;29.63
73594;BME280;64760;53.404;23.498;2023-05-24T10:03:38;99647.25;;;26.90;29.81
73594;BME280;64760;53.404;23.498;2023-05-24T10:06:09;99646.16;;;26.91;29.39
73594;BME280;64760;53.404;23.498;2023-05-24T10:08:42;99647.88;;;26.87;28.25
73594;BME280;64760;53.404;23.498;2023-05-24T10:11:12;99651.75;;;26.86;28.11
73594;BME280;64760;53.404;23.498;2023-05-24T10:13:44;99649.22;;;27.03;27.54
73594;BME280;64760;53.404;23.498;2023-05-24T10:16:15;99655.94;;;27.11;28.15
73594;BME280;64760;53.404;23.498;2023-05-24T10:18:48;99663.75;;;27.17;27.71
73594;BME280;64760;53.404;23.498;2023-05-24T10:21:20;99658.75;;;27.19;27.43
73594;BME280;64760;53.404;23.498;2023-05-24T10:23:57;99663.94;;;27.34;26.92
73594;BME280;64760;53.404;23.498;2023-05-24T10:26:30;99658.53;;;27.29;26.49
73594;BME280;64760;53.404;23.498;2023-05-24T10:29:08;99663.94;;;27.34;26.71
73594;BME280;64760;53.404;23.498;2023-05-24T10:31:40;99657.63;;;27.34;26.51
73594;BME280;64760;53.404;23.498;2023-05-24T10:34:09;99656.50;;;27.21;27.00
73594;BME280;64760;53.404;23.498;2023-05-24T10:36:37;99656.81;;;27.33;27.28
73594;BME280;64760;53.404;23.498;2023-05-24T10:39:09;99663.53;;;27.27;27.13
73594;BME280;64760;53.404;23.498;2023-05-24T10:41:42;99662.84;;;27.08;27.22
73594;BME280;64760;53.404;23.498;2023-05-24T10:44:17;99654.25;;;26.69;27.21
73594;BME280;64760;53.404;23.498;2023-05-24T10:49:55;99656.28;;;26.49;27.36
73594;BME280;64760;53.404;23.498;2023-05-24T10:52:35;99662.63;;;26.77;27.84
73594;BME280;64760;53.404;23.498;2023-05-24T10:55:07;99646.03;;;26.96;26.52
73594;BME280;64760;53.404;23.498;2023-05-24T10:57:41;99655.81;;;27.02;27.22
73594;BME280;64760;53.404;23.498;2023-05-24T11:03:02;99660.09;;;26.94;26.76
73594;BME280;64760;53.404;23.498;2023-05-24T11:05:54;99653.53;;;26.77;26.77
73594;BME280;64760;53.404;23.498;2023-05-24T11:08:34;99655.19;;;26.91;26.65
73594;BME280;64760;53.404;23.498;2023-05-24T11:13:47;99656.81;;;26.79;27.77
73594;BME280;64760;53.404;23.498;2023-05-24T11:16:36;99666.44;;;26.95;28.25
73594;BME280;64760;53.404;23.498;2023-05-24T11:19:28;99660.41;;;27.06;25.84
73594;BME280;64760;53.404;23.498;2023-05-24T11:21:56;99671.38;;;27.20;25.82
73594;BME280;64760;53.404;23.498;2023-05-24T11:24:26;99663.34;;;27.24;25.94
73594;BME280;64760;53.404;23.498;2023-05-24T11:26:54;99664.16;;;27.24;25.52
73594;BME280;64760;53.404;23.498;2023-05-24T11:29:22;99664.34;;;27.41;25.21
73594;BME280;64760;53.404;23.498;2023-05-24T11:31:57;99666.09;;;27.24;25.13
73594;BME280;64760;53.404;23.498;2023-05-24T11:34:32;99669.66;;;27.24;25.90
73594;BME280;64760;53.404;23.498;2023-05-24T11:37:02;99666.50;;;27.03;25.36
73594;BME280;64760;53.404;23.498;2023-05-24T11:39:35;99665.34;;;27.45;25.15
73594;BME280;64760;53.404;23.498;2023-05-24T11:42:04;99658.03;;;27.77;25.32
73594;BME280;64760;53.404;23.498;2023-05-24T11:44:32;99653.69;;;27.98;24.36
73594;BME280;64760;53.404;23.498;2023-05-24T11:47:02;99654.69;;;28.24;25.08
73594;BME280;64760;53.404;23.498;2023-05-24T11:49:29;99653.34;;;28.44;24.04
73594;BME280;64760;53.404;23.498;2023-05-24T11:51:57;99647.41;;;28.28;23.09
73594;BME280;64760;53.404;23.498;2023-05-24T11:54:26;99652.56;;;28.21;23.34
73594;BME280;64760;53.404;23.498;2023-05-24T11:56:54;99656.25;;;28.17;24.09
73594;BME280;64760;53.404;23.498;2023-05-24T11:59:27;99646.53;;;27.97;25.98
73594;BME280;64760;53.404;23.498;2023-05-24T12:01:57;99656.75;;;27.61;25.88
73594;BME280;64760;53.404;23.498;2023-05-24T12:04:27;99650.72;;;27.72;25.56
73594;BME280;64760;53.404;23.498;2023-05-24T12:06:57;99657.59;;;27.83;24.74
73594;BME280;64760;53.404;23.498;2023-05-24T12:09:26;99649.78;;;27.77;24.69
73594;BME280;64760;53.404;23.498;2023-05-24T12:11:59;99653.91;;;27.66;24.88
73594;BME280;64760;53.404;23.498;2023-05-24T12:14:32;99652.84;;;27.26;23.93
73594;BME280;64760;53.404;23.498;2023-05-24T12:17:15;99649.50;;;27.15;24.59
73594;BME280;64760;53.404;23.498;2023-05-24T12:19:49;99647.22;;;26.76;23.74
73594;BME280;64760;53.404;23.498;2023-05-24T12:22:26;99650.53;;;26.32;24.21
73594;BME280;64760;53.404;23.498;2023-05-24T12:24:57;99652.94;;;26.20;25.68
73594;BME280;64760;53.404;23.498;2023-05-24T12:27:28;99652.34;;;26.23;27.17
73594;BME280;64760;53.404;23.498;2023-05-24T12:30:05;99637.44;;;26.43;26.09
73594;BME280;64760;53.404;23.498;2023-05-24T12:32:38;99653.34;;;26.73;26.08
73594;BME280;64760;53.404;23.498;2023-05-24T12:35:07;99649.31;;;26.98;26.21
73594;BME280;64760;53.404;23.498;2023-05-24T12:37:34;99640.00;;;27.21;24.84
73594;BME280;64760;53.404;23.498;2023-05-24T12:40:01;99647.00;;;27.27;24.92
73594;BME280;64760;53.404;23.498;2023-05-24T12:42:32;99634.16;;;27.36;24.24
73594;BME280;64760;53.404;23.498;2023-05-24T12:44:59;99641.09;;;27.47;25.53
73594;BME280;64760;53.404;23.498;2023-05-24T12:47:30;99641.38;;;27.46;25.42
73594;BME280;64760;53.404;23.498;2023-05-24T12:49:59;99630.22;;;27.65;25.63
73594;BME280;64760;53.404;23.498;2023-05-24T12:52:29;99638.88;;;27.72;25.05
73594;BME280;64760;53.404;23.498;2023-05-24T12:54:57;99644.53;;;27.67;24.88
73594;BME280;64760;53.404;23.498;2023-05-24T12:57:33;99636.81;;;27.41;24.16
73594;BME280;64760;53.404;23.498;2023-05-24T13:00:08;99638.59;;;27.60;24.62
73594;BME280;64760;53.404;23.498;2023-05-24T13:02:41;99627.53;;;27.73;25.17
73594;BME280;64760;53.404;23.498;2023-05-24T13:05:08;99624.03;;;27.81;24.70
73594;BME280;64760;53.404;23.498;2023-05-24T13:07:36;99622.97;;;27.91;25.13
73594;BME280;64760;53.404;23.498;2023-05-24T13:10:04;99625.13;;;27.94;25.10
73594;BME280;64760;53.404;23.498;2023-05-24T13:12:32;99621.59;;;28.02;25.05
73594;BME280;64760;53.404;23.498;2023-05-24T13:14:58;99623.31;;;28.12;25.36
73594;BME280;64760;53.404;23.498;2023-05-24T13:17:29;99627.28;;;28.06;25.87
73594;BME280;64760;53.404;23.498;2023-05-24T13:20:08;99624.66;;;28.00;23.77
73594;BME280;64760;53.404;23.498;2023-05-24T13:22:38;99625.84;;;28.08;24.18
73594;BME280;64760;53.404;23.498;2023-05-24T13:25:05;99628.13;;;28.06;25.55
73594;BME280;64760;53.404;23.498;2023-05-24T13:27:33;99625.97;;;28.03;24.91
73594;BME280;64760;53.404;23.498;2023-05-24T13:30:00;99633.25;;;28.21;24.79